createdAt,value
2019-01-26T00:01:42.236Z,-1.09
2019-01-26T00:04:11.568Z,-1.08
2019-01-26T00:06:41.244Z,-1.06
2019-01-26T00:09:11.386Z,-1.07
2019-01-26T00:11:40.860Z,-1.07
2019-01-26T00:14:10.434Z,-1.15
2019-01-26T00:16:39.859Z,-1.27
2019-01-26T00:19:09.280Z,-1.36
2019-01-26T00:21:38.734Z,-1.37
2019-01-26T00:24:08.239Z,-1.40
2019-01-26T00:26:37.673Z,-1.45
2019-01-26T00:29:07.111Z,-1.40
2019-01-26T00:31:36.469Z,-1.43
2019-01-26T00:34:06.047Z,-1.44
2019-01-26T00:36:35.472Z,-1.45
2019-01-26T00:39:07.983Z,-1.48
2019-01-26T00:41:37.344Z,-1.47
2019-01-26T00:44:06.698Z,-1.51
2019-01-26T00:46:36.069Z,-1.54
2019-01-26T00:49:05.561Z,-1.58
2019-01-26T00:51:34.928Z,-1.63
2019-01-26T00:54:04.291Z,-1.59
2019-01-26T00:56:33.592Z,-1.63
2019-01-26T00:59:03.073Z,-1.58
2019-01-26T01:01:32.568Z,-1.56
2019-01-26T01:04:02.014Z,-1.49
2019-01-26T01:06:31.613Z,-1.57
2019-01-26T01:09:01.000Z,-1.64
2019-01-26T01:11:30.333Z,-1.59
2019-01-26T01:13:59.722Z,-1.56
2019-01-26T01:16:35.696Z,-1.54
2019-01-26T01:19:00.235Z,-1.64
2019-01-26T01:21:29.760Z,-1.69
2019-01-26T01:23:59.167Z,-1.73
2019-01-26T01:26:28.745Z,-1.76
2019-01-26T01:28:58.223Z,-1.85
2019-01-26T01:31:27.530Z,-1.88
2019-01-26T01:33:56.850Z,-1.88
2019-01-26T01:36:26.252Z,-1.93
2019-01-26T01:38:55.629Z,-1.96
2019-01-26T01:41:25.113Z,-1.97
2019-01-26T01:43:54.918Z,-1.96
2019-01-26T01:46:24.414Z,-1.88
2019-01-26T01:48:54.115Z,-1.92
2019-01-26T01:51:23.442Z,-1.84
2019-01-26T01:53:52.751Z,-1.90
2019-01-26T01:56:22.068Z,-1.92
2019-01-26T01:58:51.477Z,-1.88
2019-01-26T02:01:20.890Z,-1.88
2019-01-26T02:03:50.296Z,-1.98
2019-01-26T02:06:19.670Z,-1.94
2019-01-26T02:08:49.044Z,-1.96
2019-01-26T02:11:18.447Z,-1.97
2019-01-26T02:13:49.181Z,-1.96
2019-01-26T02:16:18.597Z,-2.00
2019-01-26T02:18:47.982Z,-1.95
2019-01-26T02:21:18.064Z,-1.90
2019-01-26T02:23:47.515Z,-1.96
2019-01-26T02:26:16.880Z,-1.95
2019-01-26T02:28:46.241Z,-1.91
2019-01-26T02:31:15.566Z,-1.91
2019-01-26T02:33:44.895Z,-2.02
2019-01-26T02:36:14.240Z,-1.97
2019-01-26T02:38:43.570Z,-1.97
2019-01-26T02:41:12.938Z,-2.01
2019-01-26T02:43:42.364Z,-2.04
2019-01-26T02:46:11.721Z,-1.99
2019-01-26T02:48:41.070Z,-1.97
2019-01-26T02:51:10.438Z,-1.98
2019-01-26T02:53:39.821Z,-1.99
2019-01-26T02:56:09.192Z,-1.93
2019-01-26T02:58:38.602Z,-1.95
2019-01-26T03:01:07.962Z,-1.97
2019-01-26T03:03:38.409Z,-1.95
2019-01-26T03:06:07.858Z,-1.97
2019-01-26T03:08:37.243Z,-1.96
2019-01-26T03:11:06.771Z,-1.91
2019-01-26T03:13:36.157Z,-1.93
2019-01-26T03:16:05.777Z,-1.91
2019-01-26T03:18:35.256Z,-1.95
2019-01-26T03:21:04.785Z,-1.94
2019-01-26T03:23:34.215Z,-1.96
2019-01-26T03:26:03.797Z,-2.02
2019-01-26T03:28:33.271Z,-1.98
2019-01-26T03:31:02.897Z,-1.92
2019-01-26T03:33:32.217Z,-2.01
2019-01-26T03:36:01.546Z,-2.03
2019-01-26T03:38:30.859Z,-2.03
2019-01-26T03:41:00.255Z,-2.01
2019-01-26T03:43:29.676Z,-2.00
2019-01-26T03:45:59.026Z,-2.06
2019-01-26T03:48:28.350Z,-2.00
2019-01-26T03:50:57.705Z,-1.96
2019-01-26T03:53:27.044Z,-2.03
2019-01-26T03:55:56.718Z,-2.02
2019-01-26T03:58:26.073Z,-2.00
2019-01-26T04:00:55.410Z,-2.02
2019-01-26T04:03:24.826Z,-2.04
2019-01-26T04:05:54.331Z,-2.06
2019-01-26T04:08:23.829Z,-2.03
2019-01-26T04:10:53.229Z,-1.99
2019-01-26T04:13:22.625Z,-2.06
2019-01-26T04:15:51.922Z,-2.06
2019-01-26T04:18:21.370Z,-2.04
2019-01-26T04:20:50.682Z,-1.99
2019-01-26T04:23:20.091Z,-2.01
2019-01-26T04:25:49.656Z,-2.04
2019-01-26T04:28:19.089Z,-2.06
2019-01-26T04:30:48.422Z,-2.09
2019-01-26T04:33:17.807Z,-2.11
2019-01-26T04:35:47.190Z,-2.07
2019-01-26T04:38:16.654Z,-2.09
2019-01-26T04:40:46.017Z,-2.12
2019-01-26T04:43:15.349Z,-2.13
2019-01-26T04:45:44.666Z,-2.12
2019-01-26T04:48:14.082Z,-2.13
2019-01-26T04:50:43.487Z,-2.09
2019-01-26T04:53:13.040Z,-2.13
2019-01-26T04:55:42.407Z,-2.15
2019-01-26T04:58:11.874Z,-2.22
2019-01-26T05:00:41.204Z,-2.20
2019-01-26T05:03:10.611Z,-2.15
2019-01-26T05:05:40.061Z,-2.18
2019-01-26T05:08:09.393Z,-2.22
2019-01-26T05:10:38.728Z,-2.16
2019-01-26T05:13:08.119Z,-2.17
2019-01-26T05:15:37.464Z,-2.15
2019-01-26T05:18:06.895Z,-2.19
2019-01-26T05:20:36.217Z,-2.17
2019-01-26T05:23:05.593Z,-2.18
2019-01-26T05:25:35.037Z,-2.10
2019-01-26T05:28:04.694Z,-2.14
2019-01-26T05:30:34.221Z,-2.15
2019-01-26T05:33:03.560Z,-2.15
2019-01-26T05:35:32.881Z,-2.10
2019-01-26T05:38:02.435Z,-2.14
2019-01-26T05:40:31.833Z,-2.13
2019-01-26T05:43:01.174Z,-2.17
2019-01-26T05:45:30.746Z,-2.17
2019-01-26T05:48:00.392Z,-2.15
2019-01-26T05:50:29.788Z,-2.15
2019-01-26T05:52:59.229Z,-2.13
2019-01-26T05:55:28.690Z,-2.15
2019-01-26T05:57:58.068Z,-2.19
2019-01-26T06:00:30.942Z,-2.15
2019-01-26T06:03:00.276Z,-2.21
2019-01-26T06:05:29.576Z,-2.23
2019-01-26T06:07:59.253Z,-2.22
2019-01-26T06:10:28.641Z,-2.24
2019-01-26T06:12:58.914Z,-2.22
2019-01-26T06:15:29.196Z,-2.22
2019-01-26T06:17:58.530Z,-2.23
2019-01-26T06:20:27.913Z,-2.20
2019-01-26T06:22:57.265Z,-2.28
2019-01-26T06:25:26.621Z,-2.25
2019-01-26T06:27:56.047Z,-2.22
2019-01-26T06:30:26.575Z,-2.21
2019-01-26T06:32:56.595Z,-2.25
2019-01-26T06:35:25.958Z,-2.25
2019-01-26T06:37:55.478Z,-2.24
2019-01-26T06:40:24.804Z,-2.30
2019-01-26T06:42:54.250Z,-2.31
2019-01-26T06:45:23.746Z,-2.24
2019-01-26T06:47:53.106Z,-2.28
2019-01-26T06:50:26.384Z,-2.28
2019-01-26T06:52:55.768Z,-2.30
2019-01-26T06:55:25.176Z,-2.28
2019-01-26T06:57:54.621Z,-2.28
2019-01-26T07:00:28.079Z,-2.24
2019-01-26T07:02:57.416Z,-2.27
2019-01-26T07:05:44.232Z,-2.29
2019-01-26T07:08:18.520Z,-2.30
2019-01-26T07:10:47.806Z,-2.33
2019-01-26T07:13:17.118Z,-2.34
2019-01-26T07:15:46.584Z,-2.30
2019-01-26T07:18:16.014Z,-2.26
2019-01-26T07:20:45.350Z,-2.33
2019-01-26T07:23:14.714Z,-2.34
2019-01-26T07:25:44.107Z,-2.30
2019-01-26T07:28:13.458Z,-2.34
2019-01-26T07:30:42.809Z,-2.39
2019-01-26T07:33:12.275Z,-2.39
2019-01-26T07:35:41.977Z,-2.43
2019-01-26T07:38:13.642Z,-2.43
2019-01-26T07:40:42.400Z,-2.29
2019-01-26T07:43:11.720Z,-2.29
2019-01-26T07:45:41.098Z,-2.28
2019-01-26T07:48:16.764Z,-2.36
2019-01-26T07:50:41.992Z,-2.39
2019-01-26T07:53:11.324Z,-2.33
2019-01-26T07:55:40.642Z,-2.31
2019-01-26T07:58:09.996Z,-2.26
2019-01-26T08:00:39.384Z,-2.19
2019-01-26T08:03:08.715Z,-2.20
2019-01-26T08:05:38.076Z,-2.18
2019-01-26T08:08:07.416Z,-2.09
2019-01-26T08:10:36.812Z,-2.15
2019-01-26T08:13:06.663Z,-2.12
2019-01-26T08:15:37.769Z,-2.12
2019-01-26T08:18:08.701Z,-1.93
2019-01-26T08:20:38.058Z,-0.46
2019-01-26T08:23:07.478Z,-1.21
2019-01-26T08:25:36.857Z,-1.66
2019-01-26T08:28:06.328Z,-1.89
2019-01-26T08:30:35.674Z,-2.01
2019-01-26T08:33:05.017Z,-2.11
2019-01-26T08:35:34.389Z,-2.15
2019-01-26T08:38:03.820Z,-2.16
2019-01-26T08:40:33.156Z,-2.22
2019-01-26T08:43:04.125Z,-2.28
2019-01-26T08:45:33.477Z,-2.36
2019-01-26T08:48:02.844Z,-2.44
2019-01-26T08:50:32.170Z,-2.46
2019-01-26T08:53:01.510Z,-2.50
2019-01-26T08:55:30.843Z,-2.49
2019-01-26T08:58:00.212Z,-2.55
2019-01-26T09:00:29.724Z,-2.50
2019-01-26T09:03:17.978Z,-2.45
2019-01-26T09:06:05.024Z,-2.37
2019-01-26T09:08:34.347Z,-2.34
2019-01-26T09:11:03.804Z,-2.17
2019-01-26T09:13:33.133Z,-2.12
2019-01-26T09:16:02.483Z,-2.08
2019-01-26T09:18:38.555Z,-2.08
2019-01-26T09:21:02.885Z,-2.01
2019-01-26T09:23:32.208Z,-2.07
2019-01-26T09:26:01.560Z,-1.95
2019-01-26T09:28:30.961Z,-1.84
2019-01-26T09:31:00.300Z,-1.83
2019-01-26T09:33:29.644Z,-1.73
2019-01-26T09:35:58.950Z,-1.64
2019-01-26T09:38:28.268Z,-1.60
2019-01-26T09:40:57.672Z,-1.45
2019-01-26T09:43:27.089Z,-1.42
2019-01-26T09:45:56.494Z,-1.39
2019-01-26T09:48:25.820Z,-1.40
2019-01-26T09:50:55.588Z,-1.23
2019-01-26T09:53:24.978Z,-1.43
2019-01-26T09:55:54.276Z,-1.41
2019-01-26T09:58:23.681Z,-1.34
2019-01-26T10:00:53.117Z,-1.53
2019-01-26T10:03:22.525Z,-1.57
2019-01-26T10:05:51.871Z,-1.42
2019-01-26T10:08:21.239Z,-1.43
2019-01-26T10:10:50.591Z,-1.47
2019-01-26T10:13:20.002Z,-1.54
2019-01-26T10:15:50.457Z,-1.66
2019-01-26T10:18:19.821Z,-1.67
2019-01-26T10:20:49.601Z,-1.66
2019-01-26T10:23:18.926Z,-1.61
2019-01-26T10:25:48.976Z,-1.65
2019-01-26T10:28:18.362Z,-1.61
2019-01-26T10:30:57.972Z,-1.63
2019-01-26T10:33:27.320Z,-1.54
2019-01-26T10:36:18.840Z,-1.43
2019-01-26T10:39:11.547Z,-1.32
2019-01-26T10:41:59.826Z,-1.22
2019-01-26T10:44:33.201Z,-0.99
2019-01-26T10:47:02.682Z,-1.11
2019-01-26T10:49:32.016Z,-1.22
2019-01-26T10:52:01.396Z,-1.21
2019-01-26T10:54:30.778Z,-1.17
2019-01-26T10:57:00.145Z,-1.20
2019-01-26T10:59:29.588Z,-1.33
2019-01-26T11:01:58.927Z,-1.41
2019-01-26T11:04:28.252Z,-1.37
2019-01-26T11:06:57.670Z,-1.34
2019-01-26T11:09:27.094Z,-1.18
2019-01-26T11:11:56.434Z,-1.10
2019-01-26T11:14:25.887Z,-1.23
2019-01-26T11:16:55.263Z,-1.30
2019-01-26T11:19:24.711Z,-1.33
2019-01-26T11:21:54.064Z,-1.26
2019-01-26T11:24:23.432Z,-1.17
2019-01-26T11:26:52.845Z,-1.12
2019-01-26T11:29:22.194Z,-1.15
2019-01-26T11:31:51.861Z,-0.95
2019-01-26T11:34:21.253Z,-0.76
2019-01-26T11:36:51.497Z,-0.85
2019-01-26T11:39:20.814Z,-0.91
2019-01-26T11:41:50.187Z,-0.79
2019-01-26T11:44:19.705Z,-1.02
2019-01-26T11:47:19.989Z,-1.00
2019-01-26T11:49:57.035Z,-1.08
2019-01-26T11:52:26.385Z,-1.00
2019-01-26T11:55:14.753Z,-1.00
2019-01-26T11:57:44.194Z,-0.99
2019-01-26T12:00:45.358Z,-1.10
2019-01-26T12:03:33.590Z,-1.22
2019-01-26T12:06:13.315Z,-1.24
2019-01-26T12:08:42.690Z,-1.20
2019-01-26T12:11:12.066Z,-1.26
2019-01-26T12:13:41.401Z,-1.19
2019-01-26T12:16:10.758Z,-1.20
2019-01-26T12:18:40.141Z,-1.17
2019-01-26T12:21:09.553Z,-1.14
2019-01-26T12:23:38.956Z,-1.22
2019-01-26T12:26:09.665Z,-1.11
2019-01-26T12:28:39.027Z,-0.95
2019-01-26T12:31:08.466Z,-1.03
2019-01-26T12:33:38.180Z,-1.01
2019-01-26T12:36:07.543Z,-0.99
2019-01-26T12:38:38.898Z,-1.02
2019-01-26T12:41:08.353Z,-1.04
2019-01-26T12:43:37.735Z,-1.19
2019-01-26T12:46:07.129Z,-1.16
2019-01-26T12:48:36.582Z,-1.07
2019-01-26T12:51:06.051Z,-1.06
2019-01-26T12:53:35.476Z,-1.05
2019-01-26T12:56:05.929Z,-1.08
2019-01-26T12:58:35.316Z,-1.13
2019-01-26T13:01:05.480Z,-1.12
2019-01-26T13:03:34.858Z,-1.14
2019-01-26T13:06:04.191Z,-1.16
2019-01-26T13:08:33.541Z,-1.17
2019-01-26T13:11:08.029Z,-1.08
2019-01-26T13:13:37.398Z,-1.03
2019-01-26T13:16:07.108Z,-1.01
2019-01-26T13:18:36.444Z,-1.11
2019-01-26T13:21:07.387Z,-1.19
2019-01-26T13:23:38.537Z,-1.13
2019-01-26T13:26:08.648Z,-1.10
2019-01-26T13:28:38.329Z,-1.19
2019-01-26T13:31:07.888Z,-1.24
2019-01-26T13:33:37.848Z,-1.16
2019-01-26T13:36:08.561Z,-1.12
2019-01-26T13:38:38.323Z,-1.15
2019-01-26T13:41:07.854Z,-1.17
2019-01-26T13:43:37.621Z,-1.12
2019-01-26T13:46:08.050Z,-1.01
2019-01-26T13:48:37.463Z,-0.90
2019-01-26T13:51:12.926Z,-0.83
2019-01-26T13:53:39.432Z,-0.99
2019-01-26T13:56:08.842Z,-1.06
2019-01-26T13:58:38.286Z,-1.11
2019-01-26T14:01:07.659Z,-1.14
2019-01-26T14:03:37.011Z,-1.22
2019-01-26T14:06:06.764Z,-1.29
2019-01-26T14:08:37.826Z,-1.38
2019-01-26T14:11:07.296Z,-1.43
2019-01-26T14:13:36.608Z,-1.51
2019-01-26T14:16:06.224Z,-1.50
2019-01-26T14:18:35.559Z,-1.62
2019-01-26T14:21:04.876Z,-1.63
2019-01-26T14:23:34.239Z,-1.69
2019-01-26T14:26:03.664Z,-1.66
2019-01-26T14:28:33.306Z,-1.54
2019-01-26T14:31:06.464Z,-1.68
2019-01-26T14:33:35.912Z,-1.78
2019-01-26T14:36:05.321Z,-1.70
2019-01-26T14:38:34.760Z,-1.70
2019-01-26T14:41:04.268Z,-1.70
2019-01-26T14:43:33.635Z,-1.68
2019-01-26T14:46:02.928Z,-1.71
2019-01-26T14:48:32.265Z,-1.83
2019-01-26T14:51:01.618Z,-1.95
2019-01-26T14:53:31.341Z,-1.95
2019-01-26T14:56:00.738Z,-2.09
2019-01-26T14:58:30.491Z,-2.09
2019-01-26T15:00:59.801Z,-2.21
2019-01-26T15:03:29.155Z,-2.20
2019-01-26T15:05:58.473Z,-2.20
2019-01-26T15:08:27.819Z,-2.36
2019-01-26T15:10:57.157Z,-2.38
2019-01-26T15:13:26.526Z,-2.41
2019-01-26T15:15:55.836Z,-2.41
2019-01-26T15:18:25.162Z,-2.40
2019-01-26T15:20:54.764Z,-2.44
2019-01-26T15:23:24.104Z,-2.47
2019-01-26T15:25:53.432Z,-2.43
2019-01-26T15:28:22.754Z,-2.44
2019-01-26T15:30:52.120Z,-2.50
2019-01-26T15:33:21.458Z,-2.54
2019-01-26T15:35:50.817Z,-2.57
2019-01-26T15:38:20.241Z,-2.58
2019-01-26T15:40:49.610Z,-2.57
2019-01-26T15:43:18.952Z,-2.51
2019-01-26T15:45:49.967Z,-2.46
2019-01-26T15:48:19.291Z,-2.49
2019-01-26T15:50:48.637Z,-2.43
2019-01-26T15:53:18.102Z,-2.50
2019-01-26T15:55:47.451Z,-2.62
2019-01-26T15:58:16.812Z,-2.63
2019-01-26T16:00:46.813Z,-2.62
2019-01-26T16:03:16.262Z,-2.57
2019-01-26T16:05:45.613Z,-2.58
2019-01-26T16:08:15.315Z,-2.61
2019-01-26T16:10:44.654Z,-2.66
2019-01-26T16:13:14.271Z,-2.67
2019-01-26T16:15:43.702Z,-2.70
2019-01-26T16:18:16.525Z,-2.65
2019-01-26T16:20:45.883Z,-2.72
2019-01-26T16:23:18.273Z,-2.73
2019-01-26T16:25:47.637Z,-2.72
2019-01-26T16:28:17.229Z,-2.77
2019-01-26T16:30:46.610Z,-2.74
2019-01-26T16:33:17.999Z,-2.82
2019-01-26T16:35:47.369Z,-2.81
2019-01-26T16:38:16.968Z,-2.77
2019-01-26T16:40:46.330Z,-2.73
2019-01-26T16:43:15.626Z,-2.71
2019-01-26T16:45:44.933Z,-2.77
2019-01-26T16:48:15.479Z,-2.77
2019-01-26T16:50:44.812Z,-2.83
2019-01-26T16:53:14.279Z,-2.82
2019-01-26T16:55:44.725Z,-2.85
2019-01-26T16:58:14.489Z,-2.73
2019-01-26T17:00:55.308Z,-2.74
2019-01-26T17:03:24.623Z,-2.75
2019-01-26T17:05:53.973Z,-2.74
2019-01-26T17:08:23.455Z,-2.74
2019-01-26T17:10:53.629Z,-2.68
2019-01-26T17:13:23.089Z,-2.67
2019-01-26T17:15:52.394Z,-2.64
2019-01-26T17:18:21.902Z,-2.61
2019-01-26T17:20:51.495Z,-2.65
2019-01-26T17:23:20.950Z,-2.70
2019-01-26T17:25:50.315Z,-2.68
2019-01-26T17:28:19.627Z,-2.67
2019-01-26T17:30:48.975Z,-2.74
2019-01-26T17:33:18.375Z,-2.83
2019-01-26T17:35:47.783Z,-2.83
2019-01-26T17:38:17.176Z,-2.83
2019-01-26T17:40:54.358Z,-2.79
2019-01-26T17:43:17.902Z,-2.80
2019-01-26T17:45:47.281Z,-2.88
2019-01-26T17:48:16.699Z,-2.86
2019-01-26T17:50:46.461Z,-2.85
2019-01-26T17:53:15.927Z,-2.81
2019-01-26T17:55:45.322Z,-2.83
2019-01-26T17:58:14.657Z,-2.83
2019-01-26T18:00:56.663Z,-4.30
2019-01-26T18:03:26.095Z,-2.91
2019-01-26T18:05:55.520Z,-2.98
2019-01-26T18:08:24.871Z,-2.94
2019-01-26T18:10:54.562Z,-2.93
2019-01-26T18:13:23.938Z,-2.97
2019-01-26T18:15:53.322Z,-2.99
2019-01-26T18:18:22.704Z,-3.04
2019-01-26T18:20:52.026Z,-3.10
2019-01-26T18:23:26.372Z,-3.17
2019-01-26T18:25:55.956Z,-3.20
2019-01-26T18:28:25.356Z,-3.17
2019-01-26T18:30:54.684Z,-3.22
2019-01-26T18:33:24.027Z,-3.21
2019-01-26T18:35:53.356Z,-3.22
2019-01-26T18:38:22.679Z,-3.21
2019-01-26T18:40:52.106Z,-3.20
2019-01-26T18:43:21.444Z,-3.22
2019-01-26T18:45:50.757Z,-3.32
2019-01-26T18:48:20.112Z,-3.25
2019-01-26T18:50:56.078Z,-3.26
2019-01-26T18:53:23.246Z,-3.29
2019-01-26T18:55:52.596Z,-3.23
2019-01-26T18:58:22.043Z,-3.16
2019-01-26T19:00:52.475Z,-3.10
2019-01-26T19:03:52.036Z,-3.12
2019-01-26T19:06:21.344Z,-3.05
2019-01-26T19:08:50.692Z,-3.02
2019-01-26T19:11:27.376Z,-3.00
2019-01-26T19:14:13.681Z,-3.01
2019-01-26T19:16:43.443Z,-3.02
2019-01-26T19:19:15.909Z,-2.98
2019-01-26T19:24:37.074Z,-2.94
2019-01-26T19:27:07.509Z,-2.96
2019-01-26T19:29:37.444Z,-2.84
2019-01-26T19:32:09.393Z,-2.84
2019-01-26T19:34:46.300Z,-2.77
2019-01-26T19:37:18.109Z,-2.77
2019-01-26T19:39:47.501Z,-2.83
2019-01-26T19:42:18.881Z,-2.85
2019-01-26T19:44:48.508Z,-2.82
2019-01-26T19:47:17.943Z,-2.83
2019-01-26T19:49:47.279Z,-2.81
2019-01-26T19:52:16.703Z,-2.86
2019-01-26T19:54:46.096Z,-2.88
2019-01-26T19:57:15.387Z,-2.87
2019-01-26T19:59:46.509Z,-2.89
2019-01-26T20:02:23.759Z,-2.92
2019-01-26T20:04:53.941Z,-2.93
2019-01-26T20:07:23.395Z,-2.94
2019-01-26T20:09:52.734Z,-2.96
2019-01-26T20:12:22.068Z,-2.90
2019-01-26T20:14:54.586Z,-2.91
2019-01-26T20:17:38.335Z,-2.95
2019-01-26T20:20:10.441Z,-3.01
2019-01-26T20:22:39.762Z,-3.02
2019-01-26T20:25:09.408Z,-3.01
2019-01-26T20:27:38.774Z,-3.00
2019-01-26T20:30:11.183Z,-3.01
2019-01-26T20:32:40.507Z,-3.05
2019-01-26T20:35:09.844Z,-3.07
2019-01-26T20:37:39.388Z,-3.09
2019-01-26T20:40:11.076Z,-3.13
2019-01-26T20:42:40.423Z,-3.18
2019-01-26T20:45:12.534Z,-3.19
2019-01-26T20:47:41.895Z,-3.24
2019-01-26T20:50:12.761Z,-3.28
2019-01-26T20:52:42.101Z,-3.27
2019-01-26T20:55:11.810Z,-3.30
2019-01-26T20:57:41.243Z,-3.30
2019-01-26T21:00:14.476Z,-3.35
2019-01-26T21:02:43.831Z,-3.34
2019-01-26T21:05:13.177Z,-3.32
2019-01-26T21:07:42.909Z,-3.42
2019-01-26T21:10:16.017Z,-3.46
2019-01-26T21:12:45.353Z,-3.48
2019-01-26T21:15:14.789Z,-3.54
2019-01-26T21:17:44.127Z,-3.50
2019-01-26T21:20:14.644Z,-3.47
2019-01-26T21:22:44.003Z,-3.50
2019-01-26T21:25:13.479Z,-3.54
2019-01-26T21:27:42.844Z,-3.55
2019-01-26T21:30:17.999Z,-3.51
2019-01-26T21:32:47.523Z,-3.47
2019-01-26T21:35:16.874Z,-3.42
2019-01-26T21:37:46.253Z,-3.47
2019-01-26T21:40:18.704Z,-3.44
2019-01-26T21:42:48.142Z,-3.41
2019-01-26T21:45:17.936Z,-3.39
2019-01-26T21:47:47.313Z,-3.37
2019-01-26T21:50:19.158Z,-3.40
2019-01-26T21:52:48.600Z,-3.37
2019-01-26T21:55:18.012Z,-3.36
2019-01-26T21:57:47.424Z,-3.34
2019-01-26T22:00:19.403Z,-3.41
2019-01-26T22:02:48.775Z,-3.45
2019-01-26T22:05:18.140Z,-3.42
2019-01-26T22:07:47.612Z,-3.42
2019-01-26T22:10:18.286Z,-3.41
2019-01-26T22:12:47.633Z,-3.36
2019-01-26T22:15:19.012Z,-3.36
2019-01-26T22:17:48.338Z,-3.36
2019-01-26T22:20:25.593Z,-3.29
2019-01-26T22:22:55.054Z,-3.25
2019-01-26T22:25:24.525Z,-3.24
2019-01-26T22:27:55.571Z,-3.23
2019-01-26T22:30:27.133Z,-3.19
2019-01-26T22:32:56.586Z,-3.19
2019-01-26T22:35:25.908Z,-3.18
2019-01-26T22:37:55.431Z,-3.16
2019-01-26T22:40:29.752Z,-3.17
2019-01-26T22:42:59.105Z,-3.16
2019-01-26T22:45:28.685Z,-3.15
2019-01-26T22:47:58.065Z,-3.14
2019-01-26T22:50:27.579Z,-3.13
2019-01-26T22:52:56.911Z,-3.13
2019-01-26T22:55:26.207Z,-3.09
2019-01-26T22:57:55.799Z,-3.09
2019-01-26T23:00:59.741Z,-3.13
2019-01-26T23:03:36.946Z,-3.13
2019-01-26T23:06:26.564Z,-3.13
2019-01-26T23:08:56.271Z,-3.13
2019-01-26T23:11:42.168Z,-3.09
2019-01-26T23:14:33.830Z,-3.07
2019-01-26T23:17:54.349Z,-3.06
2019-01-26T23:20:31.143Z,-3.02
2019-01-26T23:23:29.088Z,-3.00
2019-01-26T23:26:33.021Z,-2.99
2019-01-26T23:29:52.549Z,-3.03
2019-01-26T23:32:21.943Z,-3.03
2019-01-26T23:34:51.316Z,-2.93
2019-01-26T23:37:20.655Z,-2.95
2019-01-26T23:39:49.973Z,-2.97
2019-01-26T23:42:19.718Z,-2.98
2019-01-26T23:44:49.062Z,-2.90
2019-01-26T23:47:18.402Z,-2.78
2019-01-26T23:49:47.751Z,-2.73
2019-01-26T23:52:17.195Z,-2.71
2019-01-26T23:54:46.547Z,-2.66
2019-01-26T23:57:15.878Z,-2.69
2019-01-26T23:59:45.196Z,-2.76
